Time;durP1;ratioP1;P1;durP2;ratioP2;P2;SDS_P1;SDS_P2;PMS_P1;PMS_P2;Temp;Humidity;BMP_temperature;BMP_pressure;BME280_temperature;BME280_humidity;BME280_pressure;Samples;Min_cycle;Max_cycle;Signal;HPM_P1;HPM_P2
2022/07/11 00:01:27;;;;;;;7.07;1.20;;;13.60;99.90;;;;;;4902251;29;20040;-84
2022/07/11 00:03:53;;;;;;;1.13;0.80;;;13.50;99.90;;;;;;4904676;29;20462;-84
2022/07/11 00:06:25;;;;;;;1.08;0.77;;;13.50;99.90;;;;;;4914190;29;20040;-84
2022/07/11 00:08:51;;;;;;;2.33;0.82;;;13.40;99.90;;;;;;4906407;29;20051;-84
2022/07/11 00:11:19;;;;;;;2.95;1.05;;;13.40;99.90;;;;;;4898782;29;20049;-84
2022/07/11 00:13:46;;;;;;;4.40;0.98;;;13.30;99.90;;;;;;4898734;29;20413;-83
2022/07/11 00:16:12;;;;;;;3.05;0.80;;;13.30;99.90;;;;;;4902887;29;20036;-84
2022/07/11 00:18:38;;;;;;;5.10;1.10;;;13.20;99.90;;;;;;4901836;29;20433;-84
2022/07/11 00:21:06;;;;;;;0.68;0.63;;;13.10;99.90;;;;;;4910042;29;20114;-85
2022/07/11 00:23:32;;;;;;;3.63;1.20;;;13.10;99.90;;;;;;4910111;29;20025;-84
2022/07/11 00:25:57;;;;;;;5.82;0.80;;;12.90;99.90;;;;;;4908338;29;20035;-85
2022/07/11 00:28:33;;;;;;;2.25;0.95;;;13.00;99.90;;;;;;4903444;29;20052;-84
2022/07/11 00:30:58;;;;;;;3.45;1.00;;;13.00;99.90;;;;;;4913172;29;20095;-84
2022/07/11 00:33:24;;;;;;;2.28;1.05;;;12.90;99.90;;;;;;4914310;29;20544;-85
2022/07/11 00:35:54;;;;;;;1.80;0.80;;;12.90;99.90;;;;;;4912818;29;20120;-84
2022/07/11 00:38:19;;;;;;;5.10;1.25;;;12.90;99.90;;;;;;4898991;29;20164;-84
2022/07/11 00:40:48;;;;;;;2.53;1.00;;;12.80;99.90;;;;;;4911301;29;20103;-84
2022/07/11 00:43:19;;;;;;;0.60;0.57;;;12.90;99.90;;;;;;4918038;29;20031;-84
2022/07/11 00:46:04;;;;;;;1.75;0.90;;;12.90;99.90;;;;;;4921783;29;20040;-85
2022/07/11 00:48:30;;;;;;;1.42;0.63;;;12.90;99.90;;;;;;4927154;29;20039;-84
2022/07/11 00:50:57;;;;;;;3.03;0.90;;;12.90;99.90;;;;;;4910994;29;20032;-84
2022/07/11 00:53:23;;;;;;;3.35;1.08;;;13.00;99.90;;;;;;4908824;29;20043;-84
2022/07/11 00:55:52;;;;;;;3.90;1.23;;;13.00;99.90;;;;;;4899646;29;20045;-85
2022/07/11 00:58:19;;;;;;;4.80;0.95;;;13.10;99.90;;;;;;4931136;29;20036;-84
2022/07/11 01:00:45;;;;;;;5.10;1.45;;;13.10;99.90;;;;;;4915897;29;20043;-84
2022/07/11 01:03:13;;;;;;;3.47;1.00;;;13.20;99.90;;;;;;4906070;29;20103;-84
2022/07/11 01:05:59;;;;;;;7.35;0.90;;;13.20;99.90;;;;;;4900502;29;20039;-84
2022/07/11 01:08:24;;;;;;;0.77;0.70;;;13.20;99.90;;;;;;4926642;29;20032;-85
2022/07/11 01:10:53;;;;;;;2.88;1.10;;;13.30;99.90;;;;;;4901454;29;20068;-84
2022/07/11 01:13:19;;;;;;;9.13;1.20;;;13.30;99.90;;;;;;4908797;29;20052;-84
2022/07/11 01:15:47;;;;;;;2.80;0.95;;;13.30;99.90;;;;;;4899829;29;20540;-84
2022/07/11 01:18:12;;;;;;;3.13;1.35;;;13.40;99.90;;;;;;4901284;29;20477;-84
2022/07/11 01:20:38;;;;;;;7.22;1.10;;;13.40;99.90;;;;;;4897915;29;20033;-84
2022/07/11 01:23:06;;;;;;;3.17;1.35;;;13.40;99.90;;;;;;4911876;29;20384;-84
2022/07/11 01:25:33;;;;;;;2.05;0.95;;;13.40;99.90;;;;;;4898958;29;20040;-84
2022/07/11 01:28:18;;;;;;;5.00;1.08;;;13.50;99.90;;;;;;4903697;29;20722;-84
2022/07/11 01:30:51;;;;;;;5.15;1.10;;;13.60;99.90;;;;;;4903546;29;20028;-84
2022/07/11 01:33:18;;;;;;;4.28;1.00;;;13.60;99.90;;;;;;4897637;29;20524;-84
2022/07/11 01:35:44;;;;;;;6.68;1.02;;;13.60;99.90;;;;;;4896941;29;20025;-85
2022/07/11 01:38:09;;;;;;;1.45;0.65;;;13.70;99.90;;;;;;4901527;29;20028;-84
2022/07/11 01:40:46;;;;;;;6.63;1.13;;;13.70;99.90;;;;;;4897510;29;20024;-84
2022/07/11 01:43:12;;;;;;;6.43;1.20;;;13.70;99.90;;;;;;4896543;29;20438;-84
2022/07/11 01:45:37;;;;;;;3.45;1.63;;;13.70;99.90;;;;;;4897325;29;20028;-84
2022/07/11 01:48:09;;;;;;;6.70;1.23;;;13.70;99.90;;;;;;4902308;29;20512;-84
2022/07/11 01:50:34;;;;;;;2.60;0.85;;;13.60;99.90;;;;;;4906023;29;20051;-84
2022/07/11 01:53:01;;;;;;;5.28;1.15;;;13.60;99.90;;;;;;4911507;29;20478;-84
2022/07/11 01:55:33;;;;;;;2.70;1.23;;;13.60;99.90;;;;;;4910224;29;20029;-84
2022/07/11 01:57:59;;;;;;;10.93;1.15;;;13.60;99.90;;;;;;4896661;29;20056;-84
2022/07/11 02:00:37;;;;;;;4.32;1.20;;;13.70;99.90;;;;;;4904829;29;20132;-84
2022/07/11 02:03:03;;;;;;;5.47;1.88;;;13.70;99.90;;;;;;4903520;29;20453;-84
2022/07/11 02:05:30;;;;;;;1.83;1.20;;;13.70;99.90;;;;;;4902766;29;20032;-84
2022/07/11 02:10:50;;;;;;;4.63;1.35;;;13.80;99.90;;;;;;4898785;29;20389;-84
2022/07/11 02:13:17;;;;;;;3.67;1.20;;;13.80;99.90;;;;;;4897825;29;20041;-84
2022/07/11 02:15:44;;;;;;;2.40;0.95;;;13.80;99.90;;;;;;4902460;29;20036;-84
2022/07/11 02:18:18;;;;;;;1.83;1.05;;;13.80;99.90;;;;;;4911666;29;20028;-84
2022/07/11 02:20:48;;;;;;;4.70;1.25;;;13.90;99.90;;;;;;4907031;29;20055;-84
2022/07/11 02:23:15;;;;;;;3.33;1.23;;;13.90;99.90;;;;;;4912187;29;20037;-84
2022/07/11 02:25:51;;;;;;;2.45;0.98;;;13.80;99.90;;;;;;4906828;29;20040;-84
2022/07/11 02:28:16;;;;;;;3.92;1.13;;;13.90;99.90;;;;;;4908351;29;20021;-84
2022/07/11 02:30:43;;;;;;;2.15;1.40;;;13.90;99.90;;;;;;4910184;29;20043;-84
2022/07/11 02:33:16;;;;;;;3.88;1.30;;;13.80;99.90;;;;;;4901728;29;20036;-84
2022/07/11 02:35:46;;;;;;;5.88;1.45;;;13.80;99.90;;;;;;4924190;29;20024;-84
2022/07/11 02:38:11;;;;;;;6.53;1.20;;;13.90;99.90;;;;;;4905792;29;20042;-84
2022/07/11 02:40:38;;;;;;;11.77;1.58;;;13.90;99.90;;;;;;4905970;29;20095;-84
2022/07/11 02:43:05;;;;;;;5.95;1.40;;;13.90;99.90;;;;;;4900362;29;20032;-84
2022/07/11 02:45:31;;;;;;;6.88;1.75;;;13.80;99.90;;;;;;4900025;29;20131;-84
2022/07/11 02:48:04;;;;;;;3.05;1.50;;;13.80;99.90;;;;;;4908201;29;20111;-84
2022/07/11 02:50:31;;;;;;;4.88;0.90;;;13.80;99.90;;;;;;4900078;29;20107;-84
2022/07/11 02:52:56;;;;;;;4.30;1.30;;;13.80;99.90;;;;;;4905941;29;20107;-84
2022/07/11 02:55:23;;;;;;;2.40;1.50;;;13.80;99.90;;;;;;4917453;29;20112;-84
2022/07/11 02:57:48;;;;;;;5.55;1.50;;;13.80;99.90;;;;;;4910149;29;20036;-84
2022/07/11 03:00:16;;;;;;;6.60;1.77;;;13.80;99.90;;;;;;4908724;29;20020;-84
2022/07/11 03:02:44;;;;;;;5.68;1.45;;;13.80;99.90;;;;;;4914525;29;20056;-84
2022/07/11 03:05:10;;;;;;;3.90;1.40;;;13.80;99.90;;;;;;4899089;29;20060;-84
2022/07/11 03:07:39;;;;;;;4.45;1.52;;;13.70;99.90;;;;;;4899685;29;20056;-84
2022/07/11 03:10:05;;;;;;;6.97;1.77;;;13.70;99.90;;;;;;4922866;29;20111;-84
2022/07/11 03:12:30;;;;;;;2.25;1.30;;;13.70;99.90;;;;;;4896341;29;20041;-84
2022/07/11 03:15:06;;;;;;;3.30;1.90;;;13.70;99.90;;;;;;4900068;29;20028;-84
2022/07/11 03:17:32;;;;;;;4.35;1.58;;;13.70;99.90;;;;;;4898642;29;20060;-84
2022/07/11 03:19:57;;;;;;;5.38;1.95;;;13.60;99.90;;;;;;4900205;29;20548;-84
2022/07/11 03:22:29;;;;;;;4.50;2.00;;;13.60;99.90;;;;;;4902858;29;20491;-84
2022/07/11 03:24:54;;;;;;;6.13;2.40;;;13.60;99.90;;;;;;4920265;29;20043;-84
2022/07/11 03:27:21;;;;;;;8.07;1.73;;;13.70;99.90;;;;;;4900768;29;20469;-84
2022/07/11 03:29:46;;;;;;;8.70;1.98;;;13.70;99.90;;;;;;4900422;29;20124;-84
2022/07/11 03:32:12;;;;;;;5.07;1.77;;;13.70;99.90;;;;;;4902391;29;20057;-84
2022/07/11 03:34:38;;;;;;;7.68;2.10;;;13.80;99.90;;;;;;4914760;29;20365;-84
2022/07/11 03:37:04;;;;;;;9.05;2.28;;;13.80;99.90;;;;;;4901514;29;20061;-84
2022/07/11 03:39:30;;;;;;;4.97;2.03;;;13.80;99.90;;;;;;4913735;29;20033;-84
2022/07/11 03:41:59;;;;;;;2.22;1.52;;;13.70;99.90;;;;;;4902235;29;20115;-84
2022/07/11 03:44:25;;;;;;;4.45;2.10;;;13.70;99.90;;;;;;4900755;29;20485;-84
2022/07/11 03:46:51;;;;;;;3.55;2.33;;;13.70;99.90;;;;;;4906390;29;20058;-84
2022/07/11 03:49:22;;;;;;;4.00;1.60;;;13.70;99.90;;;;;;4899152;29;20021;-84
2022/07/11 03:51:48;;;;;;;12.02;2.35;;;13.70;99.90;;;;;;4906986;29;20419;-83
2022/07/11 03:54:13;;;;;;;2.55;1.70;;;13.80;99.90;;;;;;4902438;29;20029;-84
2022/07/11 03:56:42;;;;;;;4.97;1.85;;;13.80;99.90;;;;;;4910699;29;20029;-84
2022/07/11 03:59:09;;;;;;;7.53;1.85;;;13.80;99.90;;;;;;4899218;29;20045;-84
2022/07/11 04:01:34;;;;;;;4.57;2.00;;;13.80;99.90;;;;;;4917343;29;20024;-84
2022/07/11 04:04:03;;;;;;;7.15;1.80;;;13.80;99.90;;;;;;4911901;29;20039;-84
2022/07/11 04:06:29;;;;;;;6.30;2.00;;;13.80;99.90;;;;;;4899080;29;20028;-83
2022/07/11 04:08:54;;;;;;;4.57;1.50;;;13.90;99.90;;;;;;4916947;29;20091;-83
2022/07/11 04:11:26;;;;;;;2.42;1.77;;;13.90;99.90;;;;;;4898379;29;20029;-84
2022/07/11 04:13:52;;;;;;;3.13;2.13;;;14.00;99.90;;;;;;4888536;29;20035;-84
2022/07/11 04:16:17;;;;;;;7.07;2.33;;;14.00;99.90;;;;;;4879966;29;20388;-83
2022/07/11 04:18:44;;;;;;;4.22;1.60;;;14.00;99.90;;;;;;4879663;29;20111;-84
2022/07/11 04:21:11;;;;;;;3.63;1.45;;;14.10;99.90;;;;;;4879812;29;20063;-84
2022/07/11 04:23:38;;;;;;;6.00;1.77;;;14.10;99.90;;;;;;4863049;29;20029;-84
2022/07/11 04:26:04;;;;;;;3.00;1.35;;;14.10;99.90;;;;;;4881718;29;20404;-84
2022/07/11 04:28:30;;;;;;;3.58;1.70;;;14.10;99.90;;;;;;4886655;29;20028;-82
2022/07/11 04:30:56;;;;;;;5.45;2.25;;;14.10;99.90;;;;;;4888132;29;20020;-84
2022/07/11 04:33:21;;;;;;;5.63;1.65;;;14.10;99.90;;;;;;4880352;29;20077;-84
2022/07/11 04:35:48;;;;;;;7.57;2.97;;;14.10;99.90;;;;;;4886194;29;20583;-83
2022/07/11 04:38:14;;;;;;;8.40;3.20;;;14.20;99.90;;;;;;4864659;29;20488;-83
2022/07/11 04:40:39;;;;;;;4.10;2.25;;;14.20;99.90;;;;;;4882314;29;20033;-84
2022/07/11 04:43:05;;;;;;;2.88;1.60;;;14.20;99.90;;;;;;4883588;29;20028;-83
2022/07/11 04:45:31;;;;;;;4.15;2.03;;;14.10;99.90;;;;;;4885869;29;20040;-84
2022/07/11 04:47:59;;;;;;;5.10;1.77;;;14.10;99.90;;;;;;4878621;29;20063;-84
2022/07/11 04:50:36;;;;;;;3.30;1.52;;;14.20;99.90;;;;;;4879835;29;20027;-83
2022/07/11 04:53:01;;;;;;;4.50;2.00;;;14.20;99.90;;;;;;4877934;29;20025;-84
2022/07/11 04:55:27;;;;;;;7.65;2.95;;;14.20;99.90;;;;;;4870881;29;20047;-84
2022/07/11 04:57:59;;;;;;;10.00;2.30;;;14.20;99.90;;;;;;4889356;29;20036;-84
2022/07/11 05:00:24;;;;;;;4.93;2.22;;;14.20;99.90;;;;;;4896308;29;20032;-83
2022/07/11 05:02:50;;;;;;;4.72;2.70;;;14.20;99.90;;;;;;4883107;29;20035;-84
2022/07/11 05:05:34;;;;;;;6.65;3.03;;;14.20;99.90;;;;;;4891720;29;20064;-84
2022/07/11 05:08:00;;;;;;;9.80;3.38;;;14.20;99.90;;;;;;4888735;29;20025;-84
2022/07/11 05:10:26;;;;;;;4.95;2.55;;;14.30;99.90;;;;;;4875709;29;20025;-83
2022/07/11 05:12:51;;;;;;;6.13;3.78;;;14.30;99.90;;;;;;4891298;29;20513;-84
2022/07/11 05:15:18;;;;;;;6.10;3.45;;;14.30;99.90;;;;;;4902893;29;20044;-84
2022/07/11 05:17:43;;;;;;;5.18;2.83;;;14.30;99.90;;;;;;4916463;29;20060;-84
2022/07/11 05:20:09;;;;;;;5.13;2.70;;;14.40;99.90;;;;;;4900996;29;20025;-84
2022/07/11 05:22:36;;;;;;;7.20;3.38;;;14.40;99.90;;;;;;4908642;29;20119;-83
2022/07/11 05:25:01;;;;;;;10.73;2.30;;;14.50;99.90;;;;;;4902803;29;20060;-83
2022/07/11 05:27:27;;;;;;;12.00;2.42;;;14.50;99.90;;;;;;4900299;29;20075;-84
2022/07/11 05:29:53;;;;;;;4.03;2.33;;;14.50;99.90;;;;;;4912045;29;20021;-84
2022/07/11 05:32:18;;;;;;;4.35;1.70;;;14.50;99.90;;;;;;4898311;29;20170;-83
2022/07/11 05:34:44;;;;;;;4.00;2.03;;;14.50;99.90;;;;;;4911995;29;20043;-84
2022/07/11 05:37:09;;;;;;;7.00;2.00;;;14.50;99.90;;;;;;4906301;29;20115;-83
2022/07/11 05:39:35;;;;;;;3.45;1.75;;;14.50;99.90;;;;;;4898282;29;20445;-83
2022/07/11 05:42:01;;;;;;;2.33;1.65;;;14.50;99.90;;;;;;4901432;29;20025;-84
2022/07/11 05:44:28;;;;;;;7.30;2.10;;;14.50;99.90;;;;;;4922160;29;20046;-82
2022/07/11 05:46:59;;;;;;;3.90;1.63;;;14.50;99.90;;;;;;4895765;29;20040;-82
2022/07/11 05:49:25;;;;;;;3.85;1.90;;;14.60;99.90;;;;;;4899478;29;20083;-82
2022/07/11 05:51:59;;;;;;;8.75;2.67;;;14.60;99.90;;;;;;4901209;29;20069;-81
2022/07/11 05:54:25;;;;;;;4.57;1.80;;;14.60;99.90;;;;;;4908809;29;20032;-83
2022/07/11 05:56:50;;;;;;;4.70;1.70;;;14.60;99.90;;;;;;4896858;29;20496;-83
2022/07/11 05:59:19;;;;;;;7.13;2.03;;;14.70;99.90;;;;;;4906016;29;20036;-82
2022/07/11 06:01:44;;;;;;;3.58;1.55;;;14.70;99.90;;;;;;4917835;29;20079;-82
2022/07/11 06:04:10;;;;;;;5.65;1.45;;;14.70;99.90;;;;;;4903283;29;20390;-83
2022/07/11 06:06:44;;;;;;;1.77;1.65;;;14.60;99.90;;;;;;4902328;29;20044;-83
2022/07/11 06:09:09;;;;;;;7.78;1.67;;;14.60;99.90;;;;;;4905022;29;20487;-83
2022/07/11 06:11:35;;;;;;;10.07;1.92;;;14.60;99.90;;;;;;4906759;29;20036;-83
2022/07/11 06:14:00;;;;;;;3.45;1.60;;;14.70;99.90;;;;;;4910413;29;20032;-83
2022/07/11 06:16:35;;;;;;;5.50;1.90;;;14.70;99.90;;;;;;4902258;29;20065;-83
2022/07/11 06:19:00;;;;;;;5.03;1.50;;;14.70;99.90;;;;;;4904476;29;20484;-83
2022/07/11 06:21:27;;;;;;;2.83;1.23;;;14.80;99.90;;;;;;4913376;29;20056;-83
2022/07/11 06:23:54;;;;;;;4.45;1.55;;;14.80;99.90;;;;;;4919237;29;20027;-83
2022/07/11 06:26:20;;;;;;;5.07;1.77;;;14.80;99.90;;;;;;4916754;29;20035;-83
2022/07/11 06:28:45;;;;;;;5.25;1.50;;;14.80;99.90;;;;;;4919345;29;20020;-83
2022/07/11 06:31:16;;;;;;;3.17;1.27;;;14.80;99.90;;;;;;4908842;29;20028;-83
2022/07/11 06:33:42;;;;;;;2.53;1.20;;;14.80;99.90;;;;;;4914666;29;20027;-84
2022/07/11 06:36:26;;;;;;;2.78;1.67;;;14.80;99.90;;;;;;4902780;29;20032;-82
2022/07/11 06:38:53;;;;;;;2.30;1.75;;;14.90;99.90;;;;;;4900413;29;20384;-83
2022/07/11 06:41:19;;;;;;;4.30;1.67;;;14.80;99.90;;;;;;4913905;29;20032;-82
2022/07/11 06:43:51;;;;;;;1.80;1.55;;;14.90;99.90;;;;;;4905933;29;20032;-83
2022/07/11 06:46:17;;;;;;;4.03;2.03;;;14.90;99.90;;;;;;4911032;29;20048;-83
2022/07/11 06:48:42;;;;;;;3.95;2.03;;;14.90;99.90;;;;;;4906216;29;20029;-82
2022/07/11 06:51:25;;;;;;;4.70;2.33;;;14.90;99.90;;;;;;4918075;29;20032;-83
2022/07/11 06:53:51;;;;;;;2.85;2.15;;;14.90;99.90;;;;;;4904806;29;20088;-83
2022/07/11 06:56:17;;;;;;;4.75;2.17;;;14.80;99.90;;;;;;4904067;29;20746;-83
2022/07/11 06:59:17;;;;;;;3.25;2.33;;;14.80;99.90;;;;;;4900200;29;20130;-83
2022/07/11 07:01:43;;;;;;;8.05;2.28;;;14.70;99.90;;;;;;4900562;29;20025;-83
2022/07/11 07:04:08;;;;;;;2.30;1.80;;;14.70;99.90;;;;;;4909287;29;20314;-83
2022/07/11 07:06:39;;;;;;;6.72;2.25;;;14.80;99.90;;;;;;4899534;29;20037;-83
2022/07/11 07:09:05;;;;;;;1.95;1.60;;;15.00;99.90;;;;;;4899782;29;20491;-83
2022/07/11 07:11:30;;;;;;;2.25;1.27;;;15.10;99.90;;;;;;4900466;29;20037;-83
2022/07/11 07:13:57;;;;;;;2.13;1.45;;;15.30;99.90;;;;;;4899800;29;20040;-84
2022/07/11 07:16:22;;;;;;;2.72;1.50;;;15.60;99.90;;;;;;4912273;29;20028;-83
2022/07/11 07:18:50;;;;;;;7.18;1.75;;;15.70;99.90;;;;;;4914228;29;20047;-83
2022/07/11 07:21:50;;;;;;;2.65;1.38;;;15.80;99.90;;;;;;4899363;29;20025;-83
2022/07/11 07:24:15;;;;;;;4.13;1.85;;;15.90;99.90;;;;;;4919453;29;20031;-83
2022/07/11 07:26:48;;;;;;;10.18;2.03;;;15.90;99.90;;;;;;4913404;29;20032;-82
2022/07/11 07:29:14;;;;;;;6.85;1.70;;;15.80;99.90;;;;;;4901952;29;20118;-82
2022/07/11 07:31:39;;;;;;;4.57;2.05;;;15.70;99.90;;;;;;4916838;29;20081;-82
2022/07/11 07:34:05;;;;;;;8.02;2.97;;;15.70;99.90;;;;;;4915154;29;20024;-81
2022/07/11 07:36:30;;;;;;;3.65;2.08;;;15.70;99.90;;;;;;4906699;29;20040;-82
2022/07/11 07:39:07;;;;;;;3.72;2.05;;;15.70;99.90;;;;;;4899512;29;20032;-85
2022/07/11 07:41:33;;;;;;;4.95;1.58;;;15.70;99.90;;;;;;4900070;29;20156;-82
2022/07/11 07:43:59;;;;;;;4.95;1.65;;;15.70;99.90;;;;;;4901133;29;20487;-82
2022/07/11 07:46:24;;;;;;;2.53;1.92;;;15.80;99.90;;;;;;4932998;29;20032;-82
2022/07/11 07:48:50;;;;;;;3.90;1.60;;;15.90;99.90;;;;;;4923408;29;20468;-82
2022/07/11 07:51:15;;;;;;;3.50;1.25;;;16.00;99.90;;;;;;4901627;29;20690;-82
2022/07/11 07:53:57;;;;;;;2.53;1.45;;;16.00;99.90;;;;;;4926921;29;20468;-82
2022/07/11 07:56:23;;;;;;;3.42;1.20;;;16.10;99.90;;;;;;4907047;29;21825;-82
2022/07/11 07:58:56;;;;;;;1.38;1.15;;;16.20;99.90;;;;;;4904389;29;20035;-81
2022/07/11 08:04:08;;;;;;;6.28;1.55;;;16.30;99.90;;;;;;4907033;29;20484;-82
2022/07/11 08:06:34;;;;;;;6.47;1.23;;;16.20;99.90;;;;;;4898585;29;20028;-82
2022/07/11 08:09:03;;;;;;;1.20;0.98;;;16.20;99.90;;;;;;4898985;29;20020;-82
2022/07/11 08:11:28;;;;;;;2.65;1.42;;;16.30;99.90;;;;;;4908865;29;20036;-82
2022/07/11 08:13:54;;;;;;;2.63;1.50;;;16.30;99.90;;;;;;4914087;29;20068;-82
2022/07/11 08:16:20;;;;;;;2.88;1.17;;;16.30;99.90;;;;;;4915223;29;20086;-82
2022/07/11 08:18:46;;;;;;;3.17;1.13;;;16.30;99.90;;;;;;4908171;29;20036;-82
2022/07/11 08:21:12;;;;;;;4.35;1.67;;;16.30;99.90;;;;;;4904963;29;20401;-82
2022/07/11 08:23:40;;;;;;;6.63;1.40;;;16.40;99.90;;;;;;4909174;29;20039;-82
2022/07/11 08:26:06;;;;;;;0.80;0.80;;;16.50;99.90;;;;;;4926030;29;20432;-81
2022/07/11 08:28:38;;;;;;;2.63;0.93;;;16.70;99.90;;;;;;4906363;29;20021;-82
2022/07/11 08:31:03;;;;;;;2.92;0.93;;;16.70;99.90;;;;;;4916301;29;20055;-82
2022/07/11 08:33:29;;;;;;;3.53;0.75;;;16.70;99.90;;;;;;4909135;29;20061;-82
2022/07/11 08:36:02;;;;;;;5.03;1.30;;;16.70;99.90;;;;;;4910643;29;20476;-81
2022/07/11 08:38:27;;;;;;;0.98;0.88;;;16.70;99.90;;;;;;4904291;29;20032;-82
2022/07/11 08:40:53;;;;;;;10.15;1.25;;;16.80;99.90;;;;;;4917281;29;20042;-82
2022/07/11 08:43:28;;;;;;;4.35;1.20;;;16.80;99.90;;;;;;4916892;29;20036;-82
2022/07/11 08:45:54;;;;;;;4.30;1.40;;;16.70;99.90;;;;;;4916783;29;20040;-82
2022/07/11 08:48:21;;;;;;;4.70;1.38;;;16.80;99.90;;;;;;4916665;29;20480;-82
2022/07/11 08:50:48;;;;;;;1.23;1.10;;;17.00;99.90;;;;;;4916374;29;20032;-82
2022/07/11 08:53:14;;;;;;;4.65;1.33;;;17.00;99.90;;;;;;4916543;29;20373;-82
2022/07/11 08:55:40;;;;;;;5.03;1.45;;;17.10;99.90;;;;;;4916669;29;20035;-82
2022/07/11 08:58:07;;;;;;;7.72;1.80;;;17.00;99.90;;;;;;4916584;29;20075;-82
2022/07/11 09:00:33;;;;;;;2.40;1.20;;;17.00;99.90;;;;;;4916541;29;20107;-82
2022/07/11 09:03:01;;;;;;;4.00;1.63;;;17.20;99.90;;;;;;4916483;29;20111;-82
2022/07/11 09:05:28;;;;;;;2.55;1.67;;;17.30;99.90;;;;;;4916309;29;20033;-82
2022/07/11 09:07:54;;;;;;;5.03;1.85;;;17.50;99.90;;;;;;4916770;29;20021;-82
2022/07/11 09:10:20;;;;;;;2.20;1.50;;;17.60;99.90;;;;;;4916115;29;20528;-82
2022/07/11 09:13:03;;;;;;;9.75;1.45;;;17.70;99.90;;;;;;4914949;29;20092;-82
2022/07/11 09:15:40;;;;;;;3.30;1.35;;;17.60;99.90;;;;;;4916467;29;20107;-82
2022/07/11 09:18:39;;;;;;;5.28;1.42;;;17.60;99.90;;;;;;4916333;29;20038;-82
2022/07/11 09:26:46;;;;;;;4.20;2.15;;;17.60;99.90;;;;;;4916302;29;20433;-82
2022/07/11 09:29:14;;;;;;;2.85;1.55;;;17.60;99.90;;;;;;4914821;29;20469;-82
2022/07/11 09:31:46;;;;;;;4.82;1.92;;;17.70;99.90;;;;;;4930727;29;20501;-81
2022/07/11 09:34:17;;;;;;;8.18;2.15;;;17.70;99.90;;;;;;4916030;29;20031;-82
2022/07/11 09:36:45;;;;;;;3.63;2.08;;;17.60;99.90;;;;;;4922159;29;20440;-81
2022/07/11 09:39:16;;;;;;;6.28;2.03;;;17.60;99.90;;;;;;4922264;29;20127;-82
2022/07/11 09:41:43;;;;;;;5.82;2.03;;;17.60;99.90;;;;;;4922569;29;20376;-81
2022/07/11 09:44:22;;;;;;;2.42;1.50;;;17.60;99.90;;;;;;4922256;29;20032;-82
2022/07/11 09:46:49;;;;;;;6.22;2.20;;;17.60;99.90;;;;;;4922311;29;20032;-81
2022/07/11 09:49:17;;;;;;;2.70;1.60;;;17.60;99.90;;;;;;4922263;29;20357;-81
2022/07/11 09:51:43;;;;;;;3.15;1.70;;;17.60;99.90;;;;;;4921974;29;20028;-82
2022/07/11 09:54:10;;;;;;;4.95;1.92;;;17.50;99.90;;;;;;4922206;29;20039;-82
2022/07/11 09:56:40;;;;;;;10.68;2.10;;;17.50;99.90;;;;;;4922201;29;20502;-82
2022/07/11 09:59:07;;;;;;;5.85;2.22;;;17.60;99.90;;;;;;4936902;29;20110;-81
2022/07/11 10:01:33;;;;;;;5.35;2.28;;;17.60;99.90;;;;;;4922405;29;20024;-82
2022/07/11 10:03:59;;;;;;;6.80;2.00;;;17.70;99.90;;;;;;4922013;29;20069;-82
2022/07/11 10:06:25;;;;;;;9.10;2.22;;;17.80;99.90;;;;;;4921714;29;20028;-81
2022/07/11 10:08:51;;;;;;;2.00;1.67;;;18.00;99.90;;;;;;4936731;29;20024;-82
2022/07/11 10:11:18;;;;;;;5.57;2.17;;;18.20;99.90;;;;;;4921955;29;20110;-81
2022/07/11 10:13:44;;;;;;;8.90;2.53;;;18.30;99.90;;;;;;4921975;29;20048;-81
2022/07/11 10:16:22;;;;;;;1.75;1.55;;;18.40;99.90;;;;;;4922032;29;20083;-82
2022/07/11 10:19:16;;;;;;;2.10;1.50;;;18.40;99.90;;;;;;4922067;29;20032;-82
2022/07/11 10:22:02;;;;;;;1.60;0.93;;;18.30;99.90;;;;;;4920478;29;20036;-82
2022/07/11 10:24:54;;;;;;;1.50;1.20;;;18.30;99.90;;;;;;4936549;29;20036;-81
2022/07/11 10:27:27;;;;;;;1.75;1.10;;;18.40;99.90;;;;;;4913650;29;20048;-81
2022/07/11 10:29:53;;;;;;;6.95;1.17;;;18.60;99.90;;;;;;4921955;29;20028;-81
2022/07/11 10:32:27;;;;;;;2.70;1.45;;;18.60;99.90;;;;;;4915260;29;20032;-81
2022/07/11 10:35:06;;;;;;;2.53;1.33;;;18.70;99.90;;;;;;4915086;29;20028;-81
2022/07/11 10:37:46;;;;;;;5.47;1.60;;;18.80;99.90;;;;;;4920968;29;20039;-81
2022/07/11 10:40:11;;;;;;;3.03;1.35;;;19.00;99.90;;;;;;4903410;29;20479;-81
2022/07/11 10:42:41;;;;;;;3.90;1.13;;;19.00;99.90;;;;;;4917959;29;20036;-81
2022/07/11 10:45:10;;;;;;;4.78;0.98;;;19.00;99.90;;;;;;4927116;29;20028;-81
2022/07/11 10:47:42;;;;;;;5.07;0.82;;;19.20;99.90;;;;;;4909104;29;20465;-81
2022/07/11 10:50:21;;;;;;;6.53;1.10;;;19.20;99.90;;;;;;4903939;29;20394;-81
2022/07/11 10:52:49;;;;;;;1.40;0.77;;;19.20;99.90;;;;;;4926482;29;20044;-79
2022/07/11 10:55:24;;;;;;;1.27;1.00;;;19.30;99.90;;;;;;4925215;29;20032;-80
2022/07/11 10:58:04;;;;;;;2.95;0.90;;;19.40;99.90;;;;;;4919982;29;20513;-80
2022/07/11 11:00:40;;;;;;;1.80;0.70;;;19.40;99.90;;;;;;4901281;29;20044;-80
2022/07/11 11:03:07;;;;;;;2.88;0.80;;;19.50;99.90;;;;;;4906535;29;20380;-80
2022/07/11 11:05:48;;;;;;;1.30;1.00;;;19.60;99.90;;;;;;4903530;29;20040;-81
2022/07/11 11:08:46;;;;;;;1.02;0.70;;;19.70;99.90;;;;;;4916832;29;20029;-84
2022/07/11 11:11:23;;;;;;;2.47;1.13;;;19.70;99.90;;;;;;4930318;29;20037;-85
2022/07/11 11:14:22;;;;;;;1.42;1.05;;;19.60;99.90;;;;;;4923993;29;20079;-88
2022/07/11 11:16:49;;;;;;;0.82;0.63;;;19.60;99.90;;;;;;4916380;29;20144;-85
2022/07/11 11:20:07;;;;;;;11.88;1.60;;;19.60;99.90;;;;;;4925042;29;20031;-86
2022/07/11 11:22:33;;;;;;;2.08;0.77;;;19.60;99.90;;;;;;4905369;29;20032;-86
2022/07/11 11:24:59;;;;;;;5.00;1.15;;;19.60;99.90;;;;;;4908695;29;20024;-85
2022/07/11 11:27:26;;;;;;;8.40;1.85;;;19.50;99.90;;;;;;4900468;29;20676;-85
2022/07/11 11:29:56;;;;;;;1.90;1.10;;;19.60;99.90;;;;;;4899276;29;20029;-85
2022/07/11 11:32:29;;;;;;;4.15;1.38;;;19.70;99.90;;;;;;4906533;29;20024;-85
2022/07/11 11:35:17;;;;;;;3.67;1.20;;;19.80;99.90;;;;;;4904401;29;20070;-84
2022/07/11 11:37:53;;;;;;;2.88;0.68;;;19.90;98.90;;;;;;4902126;29;20536;-83
2022/07/11 11:40:19;;;;;;;2.50;0.68;;;19.90;99.80;;;;;;4916434;29;20028;-85
2022/07/11 11:42:48;;;;;;;0.63;0.63;;;19.90;99.90;;;;;;4913042;29;20499;-84
2022/07/11 11:45:21;;;;;;;1.67;0.90;;;19.90;99.90;;;;;;4910863;29;20021;-85
2022/07/11 11:47:48;;;;;;;6.85;0.90;;;19.90;99.90;;;;;;4909034;29;20029;-86
2022/07/11 11:50:14;;;;;;;4.63;1.02;;;19.80;99.90;;;;;;4900594;29;20104;-85
2022/07/11 11:52:41;;;;;;;1.85;0.77;;;19.80;99.90;;;;;;4910140;29;20437;-85
2022/07/11 11:55:09;;;;;;;4.68;1.10;;;19.90;98.00;;;;;;4904958;29;20030;-85
2022/07/11 11:57:34;;;;;;;3.03;1.00;;;20.10;98.90;;;;;;4905315;29;20358;-85
2022/07/11 12:03:22;;;;;;;1.85;0.80;;;20.20;98.70;;;;;;4904907;29;20032;-84
2022/07/11 12:05:58;;;;;;;1.60;1.05;;;20.30;99.90;;;;;;4905514;29;20024;-84
2022/07/11 12:08:28;;;;;;;2.60;1.10;;;20.30;98.70;;;;;;4907548;29;20031;-84
2022/07/11 12:10:56;;;;;;;0.98;0.75;;;20.20;98.40;;;;;;4914487;29;20035;-84
2022/07/11 12:13:22;;;;;;;5.15;1.45;;;20.20;99.90;;;;;;4910820;29;20052;-85
2022/07/11 12:16:49;;;;;;;3.20;1.15;;;20.20;99.90;;;;;;4912418;29;20480;-84
2022/07/11 12:18:42;;;;;;;3.90;1.15;;;20.20;99.90;;;;;;4902367;29;20036;-85
2022/07/11 12:21:22;;;;;;;38.83;3.88;;;20.00;99.90;;;;;;4922852;29;20175;-86
2022/07/11 12:23:48;;;;;;;3.78;1.20;;;20.00;99.90;;;;;;4912513;29;20017;-85
2022/07/11 12:26:14;;;;;;;5.03;1.58;;;20.30;99.90;;;;;;4915263;29;20055;-85
2022/07/11 12:29:08;;;;;;;3.85;0.80;;;20.30;99.90;;;;;;4914022;29;20503;-85
2022/07/11 12:31:53;;;;;;;6.88;1.13;;;20.20;99.90;;;;;;4910085;29;20037;-84
2022/07/11 12:34:22;;;;;;;4.78;1.23;;;20.30;99.90;;;;;;4914734;29;20034;-86
2022/07/11 12:36:48;;;;;;;0.80;0.80;;;20.50;99.90;;;;;;4924516;29;20036;-88
2022/07/11 12:39:25;;;;;;;10.80;1.83;;;20.60;99.90;;;;;;4913332;29;20902;-87
2022/07/11 12:41:58;;;;;;;3.10;0.95;;;20.60;99.90;;;;;;4902331;29;20035;-84
2022/07/11 12:47:14;;;;;;;8.30;1.00;;;20.50;99.90;;;;;;4914341;29;20036;-85
2022/07/11 12:49:46;;;;;;;2.00;0.80;;;20.40;99.90;;;;;;4914283;29;20028;-87
2022/07/11 12:52:12;;;;;;;2.35;0.85;;;20.30;99.90;;;;;;4908751;29;20028;-85
2022/07/11 12:54:39;;;;;;;1.65;0.90;;;20.20;99.90;;;;;;4903527;29;20035;-86
2022/07/11 12:57:06;;;;;;;1.00;0.80;;;20.10;99.90;;;;;;4903081;29;20029;-89
2022/07/11 12:59:34;;;;;;;3.20;1.05;;;20.20;99.90;;;;;;4904713;29;20028;-86
2022/07/11 13:02:09;;;;;;;2.47;0.68;;;20.20;99.90;;;;;;4898547;29;20029;-85
2022/07/11 13:04:41;;;;;;;2.45;1.65;;;20.30;99.90;;;;;;4898958;29;20081;-82
2022/07/11 13:10:26;;;;;;;6.28;0.80;;;20.80;99.90;;;;;;4899260;29;20039;-83
2022/07/11 13:12:59;;;;;;;2.85;0.80;;;20.90;99.90;;;;;;4909965;29;20523;-81
2022/07/11 13:15:24;;;;;;;2.85;1.00;;;20.80;99.90;;;;;;4906573;29;20083;-82
2022/07/11 13:17:55;;;;;;;7.00;1.00;;;20.80;99.90;;;;;;4897372;29;20025;-83